sensor_id;sensor_type;location;lat;lon;timestamp;pressure;altitude;pressure_sealevel;temperature;humidity
15604;BME280;7902;49.042;9.092;2023-05-11T00:00:39;98870.84;;;17.63;54.59
15604;BME280;7902;49.042;9.092;2023-05-11T00:03:05;98876.50;;;17.68;54.28
15604;BME280;7902;49.042;9.092;2023-05-11T00:05:31;98871.19;;;17.68;54.57
15604;BME280;7902;49.042;9.092;2023-05-11T00:07:57;98875.03;;;17.74;54.51
15604;BME280;7902;49.042;9.092;2023-05-11T00:10:23;98871.03;;;17.70;54.99
15604;BME280;7902;49.042;9.092;2023-05-11T00:12:48;98867.50;;;17.61;54.90
15604;BME280;7902;49.042;9.092;2023-05-11T00:15:14;98880.47;;;17.64;54.86
15604;BME280;7902;49.042;9.092;2023-05-11T00:17:40;98880.63;;;17.63;54.66
15604;BME280;7902;49.042;9.092;2023-05-11T00:20:07;98877.47;;;17.59;54.92
15604;BME280;7902;49.042;9.092;2023-05-11T00:22:33;98881.09;;;17.58;54.75
15604;BME280;7902;49.042;9.092;2023-05-11T00:24:58;98873.13;;;17.58;55.43
15604;BME280;7902;49.042;9.092;2023-05-11T00:27:24;98867.69;;;17.60;55.06
15604;BME280;7902;49.042;9.092;2023-05-11T00:29:50;98876.94;;;17.55;54.81
15604;BME280;7902;49.042;9.092;2023-05-11T00:32:16;98874.09;;;17.49;55.41
15604;BME280;7902;49.042;9.092;2023-05-11T00:34:42;98869.47;;;17.51;55.42
15604;BME280;7902;49.042;9.092;2023-05-11T00:37:08;98875.75;;;17.50;55.08
15604;BME280;7902;49.042;9.092;2023-05-11T00:39:34;98871.78;;;17.54;55.30
15604;BME280;7902;49.042;9.092;2023-05-11T00:42:05;98869.13;;;17.54;55.04
15604;BME280;7902;49.042;9.092;2023-05-11T00:44:31;98863.94;;;17.44;55.33
15604;BME280;7902;49.042;9.092;2023-05-11T00:46:58;98863.13;;;17.44;55.18
15604;BME280;7902;49.042;9.092;2023-05-11T00:49:24;98867.22;;;17.38;55.88
15604;BME280;7902;49.042;9.092;2023-05-11T00:51:50;98863.94;;;17.36;55.40
15604;BME280;7902;49.042;9.092;2023-05-11T00:54:16;98865.28;;;17.48;55.29
15604;BME280;7902;49.042;9.092;2023-05-11T00:56:43;98869.94;;;17.46;55.48
15604;BME280;7902;49.042;9.092;2023-05-11T00:59:09;98870.78;;;17.55;54.99
15604;BME280;7902;49.042;9.092;2023-05-11T01:01:39;98868.69;;;17.59;55.40
15604;BME280;7902;49.042;9.092;2023-05-11T01:04:05;98863.13;;;17.52;55.51
15604;BME280;7902;49.042;9.092;2023-05-11T01:06:42;98858.50;;;17.54;55.61
15604;BME280;7902;49.042;9.092;2023-05-11T01:09:20;98866.97;;;17.49;55.56
15604;BME280;7902;49.042;9.092;2023-05-11T01:11:53;98870.09;;;17.45;55.92
15604;BME280;7902;49.042;9.092;2023-05-11T01:15:05;98863.47;;;17.49;55.51
15604;BME280;7902;49.042;9.092;2023-05-11T01:17:40;98865.75;;;17.44;55.64
15604;BME280;7902;49.042;9.092;2023-05-11T01:20:11;98862.09;;;17.37;56.10
15604;BME280;7902;49.042;9.092;2023-05-11T01:31:02;98868.50;;;17.18;56.90
15604;BME280;7902;49.042;9.092;2023-05-11T01:33:32;98869.00;;;17.22;56.55
15604;BME280;7902;49.042;9.092;2023-05-11T01:36:03;98860.88;;;17.23;56.23
15604;BME280;7902;49.042;9.092;2023-05-11T01:38:32;98863.38;;;17.25;55.99
15604;BME280;7902;49.042;9.092;2023-05-11T01:41:00;98858.41;;;17.30;56.10
15604;BME280;7902;49.042;9.092;2023-05-11T01:43:29;98857.94;;;17.34;56.41
15604;BME280;7902;49.042;9.092;2023-05-11T01:45:59;98860.72;;;17.33;56.10
15604;BME280;7902;49.042;9.092;2023-05-11T01:48:27;98856.72;;;17.21;56.93
15604;BME280;7902;49.042;9.092;2023-05-11T01:50:58;98854.28;;;17.01;57.17
15604;BME280;7902;49.042;9.092;2023-05-11T01:53:27;98850.69;;;17.10;56.95
15604;BME280;7902;49.042;9.092;2023-05-11T01:55:55;98849.13;;;17.26;56.00
15604;BME280;7902;49.042;9.092;2023-05-11T01:58:23;98850.66;;;17.02;57.43
15604;BME280;7902;49.042;9.092;2023-05-11T02:00:51;98851.63;;;17.27;56.83
15604;BME280;7902;49.042;9.092;2023-05-11T02:03:18;98858.22;;;17.23;56.49
15604;BME280;7902;49.042;9.092;2023-05-11T02:05:46;98856.72;;;17.21;56.88
15604;BME280;7902;49.042;9.092;2023-05-11T02:08:13;98858.84;;;17.09;56.53
15604;BME280;7902;49.042;9.092;2023-05-11T02:10:40;98855.69;;;17.14;57.36
15604;BME280;7902;49.042;9.092;2023-05-11T02:13:08;98867.13;;;17.14;57.25
15604;BME280;7902;49.042;9.092;2023-05-11T02:15:40;98851.75;;;17.18;56.73
15604;BME280;7902;49.042;9.092;2023-05-11T02:18:08;98858.56;;;17.28;56.04
15604;BME280;7902;49.042;9.092;2023-05-11T02:20:38;98856.75;;;17.29;56.78
15604;BME280;7902;49.042;9.092;2023-05-11T02:23:07;98855.38;;;17.17;57.02
15604;BME280;7902;49.042;9.092;2023-05-11T02:25:38;98861.66;;;17.16;56.78
15604;BME280;7902;49.042;9.092;2023-05-11T02:28:05;98862.03;;;17.21;56.91
15604;BME280;7902;49.042;9.092;2023-05-11T02:30:34;98865.00;;;17.18;56.78
15604;BME280;7902;49.042;9.092;2023-05-11T02:33:05;98865.47;;;17.13;57.17
15604;BME280;7902;49.042;9.092;2023-05-11T02:35:33;98871.44;;;17.15;57.52
15604;BME280;7902;49.042;9.092;2023-05-11T02:38:01;98870.81;;;17.21;56.81
15604;BME280;7902;49.042;9.092;2023-05-11T02:40:33;98879.91;;;17.19;57.49
15604;BME280;7902;49.042;9.092;2023-05-11T02:43:09;98869.88;;;17.30;56.56
15604;BME280;7902;49.042;9.092;2023-05-11T02:45:36;98862.72;;;17.31;56.59
15604;BME280;7902;49.042;9.092;2023-05-11T02:48:07;98861.06;;;17.30;56.91
15604;BME280;7902;49.042;9.092;2023-05-11T02:50:38;98859.94;;;17.32;56.39
15604;BME280;7902;49.042;9.092;2023-05-11T02:53:11;98865.72;;;17.28;56.84
15604;BME280;7902;49.042;9.092;2023-05-11T02:55:40;98856.38;;;17.24;56.67
15604;BME280;7902;49.042;9.092;2023-05-11T02:58:07;98866.38;;;17.30;56.50
15604;BME280;7902;49.042;9.092;2023-05-11T03:00:33;98859.72;;;17.26;56.56
15604;BME280;7902;49.042;9.092;2023-05-11T03:02:59;98856.38;;;17.24;56.59
15604;BME280;7902;49.042;9.092;2023-05-11T03:05:25;98857.78;;;17.02;57.75
15604;BME280;7902;49.042;9.092;2023-05-11T03:07:55;98853.31;;;17.02;57.53
15604;BME280;7902;49.042;9.092;2023-05-11T03:10:23;98859.94;;;16.98;57.39
15604;BME280;7902;49.042;9.092;2023-05-11T03:12:50;98855.03;;;17.20;56.94
15604;BME280;7902;49.042;9.092;2023-05-11T03:15:17;98850.19;;;17.07;57.02
15604;BME280;7902;49.042;9.092;2023-05-11T03:17:43;98852.00;;;17.06;57.06
15604;BME280;7902;49.042;9.092;2023-05-11T03:20:11;98855.38;;;17.17;56.65
15604;BME280;7902;49.042;9.092;2023-05-11T03:22:37;98857.34;;;17.15;57.28
15604;BME280;7902;49.042;9.092;2023-05-11T03:25:04;98852.81;;;16.73;57.89
15604;BME280;7902;49.042;9.092;2023-05-11T03:27:30;98850.66;;;17.02;57.40
15604;BME280;7902;49.042;9.092;2023-05-11T03:29:59;98848.34;;;16.99;57.32
15604;BME280;7902;49.042;9.092;2023-05-11T03:32:26;98848.72;;;17.13;57.06
15604;BME280;7902;49.042;9.092;2023-05-11T03:34:52;98850.63;;;16.68;58.35
15604;BME280;7902;49.042;9.092;2023-05-11T03:37:18;98852.25;;;16.95;57.82
15604;BME280;7902;49.042;9.092;2023-05-11T03:39:47;98844.38;;;17.03;57.30
15604;BME280;7902;49.042;9.092;2023-05-11T03:42:16;98845.31;;;16.94;57.82
15604;BME280;7902;49.042;9.092;2023-05-11T03:44:45;98841.00;;;16.93;57.76
15604;BME280;7902;49.042;9.092;2023-05-11T03:47:13;98841.53;;;17.05;57.29
15604;BME280;7902;49.042;9.092;2023-05-11T03:49:41;98847.22;;;16.76;58.60
15604;BME280;7902;49.042;9.092;2023-05-11T03:52:07;98845.44;;;16.85;58.12
15604;BME280;7902;49.042;9.092;2023-05-11T03:54:33;98843.50;;;16.69;58.26
15604;BME280;7902;49.042;9.092;2023-05-11T03:57:00;98841.25;;;16.82;58.30
15604;BME280;7902;49.042;9.092;2023-05-11T03:59:26;98839.34;;;17.00;57.44
15604;BME280;7902;49.042;9.092;2023-05-11T04:01:52;98834.06;;;17.00;57.51
15604;BME280;7902;49.042;9.092;2023-05-11T04:04:19;98844.97;;;16.89;58.19
15604;BME280;7902;49.042;9.092;2023-05-11T04:06:45;98840.38;;;16.99;57.84
15604;BME280;7902;49.042;9.092;2023-05-11T04:09:11;98838.31;;;16.85;57.79
15604;BME280;7902;49.042;9.092;2023-05-11T04:11:37;98846.09;;;16.87;57.85
15604;BME280;7902;49.042;9.092;2023-05-11T04:14:03;98842.09;;;16.83;58.37
15604;BME280;7902;49.042;9.092;2023-05-11T04:16:29;98840.63;;;16.88;57.57
15604;BME280;7902;49.042;9.092;2023-05-11T04:18:55;98835.94;;;16.82;57.89
15604;BME280;7902;49.042;9.092;2023-05-11T04:21:21;98840.78;;;16.87;57.95
15604;BME280;7902;49.042;9.092;2023-05-11T04:23:47;98839.28;;;16.84;58.10
15604;BME280;7902;49.042;9.092;2023-05-11T04:26:13;98844.88;;;16.81;57.82
15604;BME280;7902;49.042;9.092;2023-05-11T04:28:40;98844.28;;;16.87;58.08
15604;BME280;7902;49.042;9.092;2023-05-11T04:31:05;98838.59;;;16.82;57.98
15604;BME280;7902;49.042;9.092;2023-05-11T04:33:32;98850.09;;;16.65;58.93
15604;BME280;7902;49.042;9.092;2023-05-11T04:35:58;98850.84;;;16.75;58.43
15604;BME280;7902;49.042;9.092;2023-05-11T04:38:24;98842.81;;;16.49;59.37
15604;BME280;7902;49.042;9.092;2023-05-11T04:40:50;98853.28;;;16.68;58.44
15604;BME280;7902;49.042;9.092;2023-05-11T04:43:16;98852.38;;;16.86;58.19
15604;BME280;7902;49.042;9.092;2023-05-11T04:45:49;98851.03;;;16.82;58.49
15604;BME280;7902;49.042;9.092;2023-05-11T04:48:15;98850.63;;;16.94;57.66
15604;BME280;7902;49.042;9.092;2023-05-11T04:50:41;98844.16;;;16.97;57.56
15604;BME280;7902;49.042;9.092;2023-05-11T04:53:08;98847.50;;;16.99;57.80
15604;BME280;7902;49.042;9.092;2023-05-11T04:55:34;98845.84;;;16.98;58.00
15604;BME280;7902;49.042;9.092;2023-05-11T04:58:00;98843.03;;;16.99;57.63
15604;BME280;7902;49.042;9.092;2023-05-11T05:00:26;98845.22;;;17.04;57.83
15604;BME280;7902;49.042;9.092;2023-05-11T05:02:52;98845.00;;;16.97;58.81
15604;BME280;7902;49.042;9.092;2023-05-11T05:05:18;98841.03;;;17.01;58.30
15604;BME280;7902;49.042;9.092;2023-05-11T05:07:43;98845.56;;;17.09;58.18
15604;BME280;7902;49.042;9.092;2023-05-11T05:10:10;98843.34;;;17.04;59.17
15604;BME280;7902;49.042;9.092;2023-05-11T05:12:40;98853.03;;;17.14;58.39
15604;BME280;7902;49.042;9.092;2023-05-11T05:15:07;98860.53;;;17.18;57.82
15604;BME280;7902;49.042;9.092;2023-05-11T05:17:33;98863.59;;;17.05;58.90
15604;BME280;7902;49.042;9.092;2023-05-11T05:20:00;98864.66;;;17.13;57.97
15604;BME280;7902;49.042;9.092;2023-05-11T05:22:26;98861.47;;;17.09;58.36
15604;BME280;7902;49.042;9.092;2023-05-11T05:24:51;98866.59;;;17.10;58.42
15604;BME280;7902;49.042;9.092;2023-05-11T05:27:17;98859.97;;;17.06;57.91
15604;BME280;7902;49.042;9.092;2023-05-11T05:29:43;98862.66;;;17.15;58.30
15604;BME280;7902;49.042;9.092;2023-05-11T05:32:09;98860.47;;;17.10;58.09
15604;BME280;7902;49.042;9.092;2023-05-11T05:34:35;98868.28;;;17.11;58.83
15604;BME280;7902;49.042;9.092;2023-05-11T05:37:01;98867.28;;;17.13;58.42
15604;BME280;7902;49.042;9.092;2023-05-11T05:39:27;98869.00;;;17.22;57.82
15604;BME280;7902;49.042;9.092;2023-05-11T05:41:53;98870.78;;;17.13;58.27
15604;BME280;7902;49.042;9.092;2023-05-11T05:44:18;98876.81;;;17.23;58.54
15604;BME280;7902;49.042;9.092;2023-05-11T05:46:44;98872.84;;;17.27;58.08
15604;BME280;7902;49.042;9.092;2023-05-11T05:49:10;98868.03;;;17.31;57.97
15604;BME280;7902;49.042;9.092;2023-05-11T05:51:36;98872.88;;;17.35;57.64
15604;BME280;7902;49.042;9.092;2023-05-11T05:54:02;98877.00;;;17.30;58.21
15604;BME280;7902;49.042;9.092;2023-05-11T05:56:28;98876.72;;;17.07;59.30
15604;BME280;7902;49.042;9.092;2023-05-11T05:58:54;98874.50;;;16.94;60.02
15604;BME280;7902;49.042;9.092;2023-05-11T06:01:21;98884.06;;;17.13;59.12
15604;BME280;7902;49.042;9.092;2023-05-11T06:03:47;98880.38;;;17.14;59.06
15604;BME280;7902;49.042;9.092;2023-05-11T06:06:13;98879.59;;;17.22;58.83
15604;BME280;7902;49.042;9.092;2023-05-11T06:08:39;98885.22;;;17.19;58.78
15604;BME280;7902;49.042;9.092;2023-05-11T06:11:05;98887.84;;;17.10;59.05
15604;BME280;7902;49.042;9.092;2023-05-11T06:13:31;98885.56;;;17.24;59.02
15604;BME280;7902;49.042;9.092;2023-05-11T06:15:56;98882.28;;;17.30;58.53
15604;BME280;7902;49.042;9.092;2023-05-11T06:18:22;98893.00;;;17.12;59.83
15604;BME280;7902;49.042;9.092;2023-05-11T06:20:59;98892.19;;;17.20;59.52
15604;BME280;7902;49.042;9.092;2023-05-11T06:23:27;98888.22;;;17.24;59.06
15604;BME280;7902;49.042;9.092;2023-05-11T06:25:53;98888.69;;;17.19;59.46
15604;BME280;7902;49.042;9.092;2023-05-11T06:28:19;98889.28;;;17.31;59.16
15604;BME280;7902;49.042;9.092;2023-05-11T06:30:47;98892.72;;;17.23;59.48
15604;BME280;7902;49.042;9.092;2023-05-11T06:33:13;98886.75;;;16.95;60.63
15604;BME280;7902;49.042;9.092;2023-05-11T06:35:39;98888.16;;;17.07;60.17
15604;BME280;7902;49.042;9.092;2023-05-11T06:38:05;98894.97;;;17.10;60.72
15604;BME280;7902;49.042;9.092;2023-05-11T06:40:31;98888.78;;;17.35;59.32
15604;BME280;7902;49.042;9.092;2023-05-11T06:42:57;98892.56;;;17.25;59.35
15604;BME280;7902;49.042;9.092;2023-05-11T06:45:23;98889.63;;;17.36;59.41
15604;BME280;7902;49.042;9.092;2023-05-11T06:47:49;98896.78;;;17.09;60.68
15604;BME280;7902;49.042;9.092;2023-05-11T06:50:14;98887.22;;;17.17;60.08
15604;BME280;7902;49.042;9.092;2023-05-11T06:52:40;98887.34;;;17.15;59.99
15604;BME280;7902;49.042;9.092;2023-05-11T06:55:07;98886.38;;;16.90;61.24
15604;BME280;7902;49.042;9.092;2023-05-11T06:57:33;98888.06;;;17.17;60.92
15604;BME280;7902;49.042;9.092;2023-05-11T06:59:58;98897.50;;;17.20;60.11
15604;BME280;7902;49.042;9.092;2023-05-11T07:02:24;98892.53;;;17.17;60.89
15604;BME280;7902;49.042;9.092;2023-05-11T07:04:50;98888.91;;;17.26;60.17
15604;BME280;7902;49.042;9.092;2023-05-11T07:07:16;98890.63;;;17.35;59.55
15604;BME280;7902;49.042;9.092;2023-05-11T07:09:42;98897.59;;;17.36;59.15
15604;BME280;7902;49.042;9.092;2023-05-11T07:12:08;98896.22;;;16.98;60.72
15604;BME280;7902;49.042;9.092;2023-05-11T07:14:34;98904.22;;;17.32;59.82
15604;BME280;7902;49.042;9.092;2023-05-11T07:17:00;98898.94;;;17.40;59.06
15604;BME280;7902;49.042;9.092;2023-05-11T07:19:26;98898.94;;;17.40;59.63
15604;BME280;7902;49.042;9.092;2023-05-11T07:21:52;98899.06;;;17.04;60.48
15604;BME280;7902;49.042;9.092;2023-05-11T07:24:18;98906.56;;;17.43;59.13
15604;BME280;7902;49.042;9.092;2023-05-11T07:26:44;98902.28;;;17.16;60.85
15604;BME280;7902;49.042;9.092;2023-05-11T07:29:10;98900.00;;;17.21;60.27
15604;BME280;7902;49.042;9.092;2023-05-11T07:31:36;98907.50;;;17.26;60.13
15604;BME280;7902;49.042;9.092;2023-05-11T07:34:02;98905.81;;;17.25;59.85
15604;BME280;7902;49.042;9.092;2023-05-11T07:36:29;98906.00;;;17.23;59.72
15604;BME280;7902;49.042;9.092;2023-05-11T07:38:55;98895.91;;;17.27;59.39
15604;BME280;7902;49.042;9.092;2023-05-11T07:41:22;98908.44;;;17.17;59.98
15604;BME280;7902;49.042;9.092;2023-05-11T07:43:52;98899.63;;;16.90;60.80
15604;BME280;7902;49.042;9.092;2023-05-11T07:46:18;98908.44;;;17.17;59.67
15604;BME280;7902;49.042;9.092;2023-05-11T07:48:44;98906.16;;;17.22;59.50
15604;BME280;7902;49.042;9.092;2023-05-11T07:51:10;98910.34;;;17.32;59.87
15604;BME280;7902;49.042;9.092;2023-05-11T07:53:36;98901.03;;;17.28;60.61
15604;BME280;7902;49.042;9.092;2023-05-11T07:56:02;98907.88;;;17.39;59.81
15604;BME280;7902;49.042;9.092;2023-05-11T07:58:29;98906.88;;;17.06;60.48
15604;BME280;7902;49.042;9.092;2023-05-11T08:00:55;98907.47;;;17.18;61.37
15604;BME280;7902;49.042;9.092;2023-05-11T08:03:21;98902.53;;;17.31;60.49
15604;BME280;7902;49.042;9.092;2023-05-11T08:05:47;98904.28;;;17.48;59.42
15604;BME280;7902;49.042;9.092;2023-05-11T08:08:13;98911.16;;;17.59;59.79
15604;BME280;7902;49.042;9.092;2023-05-11T08:10:40;98909.34;;;17.59;59.46
15604;BME280;7902;49.042;9.092;2023-05-11T08:13:06;98909.34;;;17.67;59.11
15604;BME280;7902;49.042;9.092;2023-05-11T08:15:32;98911.72;;;17.70;59.21
15604;BME280;7902;49.042;9.092;2023-05-11T08:17:58;98910.19;;;17.68;58.83
15604;BME280;7902;49.042;9.092;2023-05-11T08:20:25;98907.91;;;17.81;58.92
15604;BME280;7902;49.042;9.092;2023-05-11T08:22:51;98903.28;;;17.83;58.80
15604;BME280;7902;49.042;9.092;2023-05-11T08:25:17;98899.78;;;17.82;58.62
15604;BME280;7902;49.042;9.092;2023-05-11T08:27:43;98902.09;;;17.85;58.88
15604;BME280;7902;49.042;9.092;2023-05-11T08:30:09;98900.78;;;17.81;59.05
15604;BME280;7902;49.042;9.092;2023-05-11T08:32:35;98905.44;;;17.87;58.29
15604;BME280;7902;49.042;9.092;2023-05-11T08:35:02;98912.72;;;17.85;59.36
15604;BME280;7902;49.042;9.092;2023-05-11T08:37:29;98906.44;;;17.86;58.89
15604;BME280;7902;49.042;9.092;2023-05-11T08:39:55;98910.44;;;17.90;58.73
15604;BME280;7902;49.042;9.092;2023-05-11T08:42:23;98914.25;;;17.88;59.01
15604;BME280;7902;49.042;9.092;2023-05-11T08:44:54;98909.59;;;17.90;58.85
15604;BME280;7902;49.042;9.092;2023-05-11T08:47:21;98908.59;;;17.83;58.66
15604;BME280;7902;49.042;9.092;2023-05-11T08:49:47;98907.63;;;17.92;58.79
15604;BME280;7902;49.042;9.092;2023-05-11T08:52:15;98913.22;;;17.81;59.47
15604;BME280;7902;49.042;9.092;2023-05-11T08:54:42;98908.38;;;17.76;59.09
15604;BME280;7902;49.042;9.092;2023-05-11T08:57:09;98917.31;;;17.67;59.41
15604;BME280;7902;49.042;9.092;2023-05-11T08:59:35;98923.84;;;17.81;59.31
15604;BME280;7902;49.042;9.092;2023-05-11T09:02:03;98910.22;;;17.76;59.47
15604;BME280;7902;49.042;9.092;2023-05-11T09:04:29;98916.53;;;17.75;59.43
15604;BME280;7902;49.042;9.092;2023-05-11T09:06:56;98917.41;;;17.83;59.46
15604;BME280;7902;49.042;9.092;2023-05-11T09:09:22;98913.34;;;17.71;59.70
15604;BME280;7902;49.042;9.092;2023-05-11T09:11:48;98915.72;;;17.82;59.71
15604;BME280;7902;49.042;9.092;2023-05-11T09:14:15;98919.69;;;17.78;59.98
15604;BME280;7902;49.042;9.092;2023-05-11T09:16:41;98917.03;;;17.70;59.74
15604;BME280;7902;49.042;9.092;2023-05-11T09:19:13;98925.66;;;17.80;59.10
15604;BME280;7902;49.042;9.092;2023-05-11T09:21:43;98921.72;;;17.92;59.36
15604;BME280;7902;49.042;9.092;2023-05-11T09:24:12;98919.72;;;17.86;59.39
15604;BME280;7902;49.042;9.092;2023-05-11T09:26:38;98920.19;;;17.82;59.55
15604;BME280;7902;49.042;9.092;2023-05-11T09:29:04;98916.41;;;17.84;58.96
15604;BME280;7902;49.042;9.092;2023-05-11T09:31:43;98922.00;;;17.73;59.37
15604;BME280;7902;49.042;9.092;2023-05-11T09:34:22;98925.66;;;17.80;59.59
15604;BME280;7902;49.042;9.092;2023-05-11T09:36:52;98927.19;;;17.83;59.76
15604;BME280;7902;49.042;9.092;2023-05-11T09:42:17;98924.69;;;17.89;59.82
15604;BME280;7902;49.042;9.092;2023-05-11T09:44:44;98926.69;;;17.87;59.97
15604;BME280;7902;49.042;9.092;2023-05-11T09:47:15;98918.91;;;17.94;59.39
15604;BME280;7902;49.042;9.092;2023-05-11T09:49:42;98918.38;;;17.82;59.55
15604;BME280;7902;49.042;9.092;2023-05-11T09:52:13;98926.50;;;17.81;59.87
15604;BME280;7902;49.042;9.092;2023-05-11T09:54:43;98917.53;;;17.82;59.34
15604;BME280;7902;49.042;9.092;2023-05-11T09:57:23;98918.38;;;17.82;59.81
15604;BME280;7902;49.042;9.092;2023-05-11T09:59:51;98915.38;;;17.85;59.33
15604;BME280;7902;49.042;9.092;2023-05-11T10:02:25;98919.22;;;17.91;59.64
15604;BME280;7902;49.042;9.092;2023-05-11T10:04:56;98919.06;;;17.92;59.48
15604;BME280;7902;49.042;9.092;2023-05-11T10:07:29;98919.91;;;17.93;59.80
15604;BME280;7902;49.042;9.092;2023-05-11T10:09:59;98921.88;;;17.91;60.56
15604;BME280;7902;49.042;9.092;2023-05-11T10:12:27;98920.41;;;17.96;59.80
15604;BME280;7902;49.042;9.092;2023-05-11T10:14:57;98916.78;;;17.97;60.17
15604;BME280;7902;49.042;9.092;2023-05-11T10:17:26;98919.72;;;17.94;60.15
15604;BME280;7902;49.042;9.092;2023-05-11T10:19:57;98928.41;;;18.05;59.87
15604;BME280;7902;49.042;9.092;2023-05-11T10:22:24;98921.91;;;17.99;60.31
15604;BME280;7902;49.042;9.092;2023-05-11T10:24:50;98917.13;;;18.03;59.76
15604;BME280;7902;49.042;9.092;2023-05-11T10:27:20;98914.91;;;17.90;60.03
15604;BME280;7902;49.042;9.092;2023-05-11T10:29:47;98923.41;;;17.93;60.49
15604;BME280;7902;49.042;9.092;2023-05-11T10:32:15;98917.41;;;17.99;59.58
15604;BME280;7902;49.042;9.092;2023-05-11T10:34:45;98915.09;;;17.96;59.77
15604;BME280;7902;49.042;9.092;2023-05-11T10:37:13;98913.44;;;18.04;59.44
15604;BME280;7902;49.042;9.092;2023-05-11T10:39:39;98908.81;;;17.97;60.25
15604;BME280;7902;49.042;9.092;2023-05-11T10:53:58;98900.63;;;17.91;60.22
15604;BME280;7902;49.042;9.092;2023-05-11T10:57:00;98902.81;;;18.04;60.48
15604;BME280;7902;49.042;9.092;2023-05-11T11:00:01;98910.75;;;17.79;61.17
15604;BME280;7902;49.042;9.092;2023-05-11T11:02:36;98903.47;;;17.97;60.36
15604;BME280;7902;49.042;9.092;2023-05-11T11:05:02;98900.47;;;17.92;60.59
15604;BME280;7902;49.042;9.092;2023-05-11T11:07:58;98898.16;;;17.97;60.46
15604;BME280;7902;49.042;9.092;2023-05-11T11:10:51;98893.84;;;17.96;60.38
15604;BME280;7902;49.042;9.092;2023-05-11T11:13:17;98895.88;;;18.03;61.27
15604;BME280;7902;49.042;9.092;2023-05-11T11:18:22;98896.53;;;18.13;60.98
15604;BME280;7902;49.042;9.092;2023-05-11T11:20:50;98890.75;;;18.17;60.96
15604;BME280;7902;49.042;9.092;2023-05-11T11:26:06;98889.38;;;18.13;60.46
15604;BME280;7902;49.042;9.092;2023-05-11T11:31:30;98885.19;;;17.94;61.25
15604;BME280;7902;49.042;9.092;2023-05-11T11:33:57;98888.88;;;18.10;60.80
15604;BME280;7902;49.042;9.092;2023-05-11T11:39:24;98889.72;;;18.18;59.81
15604;BME280;7902;49.042;9.092;2023-05-11T11:42:01;98891.53;;;18.10;60.46
15604;BME280;7902;49.042;9.092;2023-05-11T11:44:28;98891.72;;;18.24;59.94
15604;BME280;7902;49.042;9.092;2023-05-11T11:47:19;98888.72;;;18.11;59.90
15604;BME280;7902;49.042;9.092;2023-05-11T11:49:51;98881.59;;;18.20;59.81
15604;BME280;7902;49.042;9.092;2023-05-11T11:55:01;98883.06;;;18.22;59.45
15604;BME280;7902;49.042;9.092;2023-05-11T11:59:59;98878.13;;;18.35;59.27
15604;BME280;7902;49.042;9.092;2023-05-11T12:02:26;98876.78;;;18.39;58.81
15604;BME280;7902;49.042;9.092;2023-05-11T12:07:34;98872.47;;;18.47;59.10
15604;BME280;7902;49.042;9.092;2023-05-11T12:10:04;98877.28;;;18.51;58.81
15604;BME280;7902;49.042;9.092;2023-05-11T12:12:30;98872.00;;;18.59;58.10
15604;BME280;7902;49.042;9.092;2023-05-11T12:14:56;98876.63;;;18.49;58.27
15604;BME280;7902;49.042;9.092;2023-05-11T12:17:24;98874.34;;;18.54;58.63
15604;BME280;7902;49.042;9.092;2023-05-11T12:19:50;98876.13;;;18.46;58.72
15604;BME280;7902;49.042;9.092;2023-05-11T12:22:24;98876.28;;;18.52;58.31
15604;BME280;7902;49.042;9.092;2023-05-11T12:24:54;98868.50;;;18.67;58.08
15604;BME280;7902;49.042;9.092;2023-05-11T12:27:20;98864.16;;;18.66;58.43
15604;BME280;7902;49.042;9.092;2023-05-11T12:29:49;98859.66;;;18.74;58.70
15604;BME280;7902;49.042;9.092;2023-05-11T12:32:29;98861.38;;;18.59;58.08
15604;BME280;7902;49.042;9.092;2023-05-11T12:34:57;98862.03;;;18.53;57.43
15604;BME280;7902;49.042;9.092;2023-05-11T12:37:23;98860.03;;;18.63;57.26
15604;BME280;7902;49.042;9.092;2023-05-11T12:39:53;98861.03;;;18.62;57.54
15604;BME280;7902;49.042;9.092;2023-05-11T12:42:19;98860.34;;;18.68;58.10
15604;BME280;7902;49.042;9.092;2023-05-11T12:44:45;98861.53;;;18.74;57.38
15604;BME280;7902;49.042;9.092;2023-05-11T12:47:11;98857.53;;;18.78;57.86
15604;BME280;7902;49.042;9.092;2023-05-11T12:49:40;98858.16;;;18.80;57.43
15604;BME280;7902;49.042;9.092;2023-05-11T12:52:07;98860.31;;;18.84;56.95
15604;BME280;7902;49.042;9.092;2023-05-11T12:54:49;98850.50;;;18.85;57.69
15604;BME280;7902;49.042;9.092;2023-05-11T12:57:28;98845.66;;;18.89;58.05
15604;BME280;7902;49.042;9.092;2023-05-11T13:02:48;98838.72;;;18.71;57.14
15604;BME280;7902;49.042;9.092;2023-05-11T13:05:15;98842.19;;;18.80;57.40
15604;BME280;7902;49.042;9.092;2023-05-11T13:07:41;98833.72;;;18.84;56.78
15604;BME280;7902;49.042;9.092;2023-05-11T13:10:09;98833.53;;;18.94;56.67
15604;BME280;7902;49.042;9.092;2023-05-11T13:12:47;98834.91;;;18.82;56.13
15604;BME280;7902;49.042;9.092;2023-05-11T13:15:14;98832.56;;;18.79;55.44
15604;BME280;7902;49.042;9.092;2023-05-11T13:17:41;98822.88;;;18.94;56.67
15604;BME280;7902;49.042;9.092;2023-05-11T13:20:26;98824.75;;;18.85;55.89
15604;BME280;7902;49.042;9.092;2023-05-11T13:23:08;98819.06;;;18.97;57.00
15604;BME280;7902;49.042;9.092;2023-05-11T13:25:51;98816.41;;;18.97;56.74
15604;BME280;7902;49.042;9.092;2023-05-11T13:28:21;98809.38;;;19.04;55.80
15604;BME280;7902;49.042;9.092;2023-05-11T13:30:49;98819.97;;;19.12;56.20
15604;BME280;7902;49.042;9.092;2023-05-11T13:33:18;98814.69;;;19.04;55.69
15604;BME280;7902;49.042;9.092;2023-05-11T13:35:44;98816.38;;;19.05;56.25
15604;BME280;7902;49.042;9.092;2023-05-11T13:38:11;98810.88;;;19.06;55.61
15604;BME280;7902;49.042;9.092;2023-05-11T13:40:37;98804.53;;;19.15;56.04
15604;BME280;7902;49.042;9.092;2023-05-11T13:43:03;98799.53;;;19.12;56.10
15604;BME280;7902;49.042;9.092;2023-05-11T13:45:29;98806.50;;;19.13;55.47
15604;BME280;7902;49.042;9.092;2023-05-11T13:47:55;98801.03;;;19.15;55.87
15604;BME280;7902;49.042;9.092;2023-05-11T13:50:22;98795.50;;;19.16;55.83
15604;BME280;7902;49.042;9.092;2023-05-11T13:52:48;98797.38;;;19.16;54.65
15604;BME280;7902;49.042;9.092;2023-05-11T13:55:14;98789.72;;;19.13;55.65
15604;BME280;7902;49.042;9.092;2023-05-11T13:57:40;98791.84;;;19.17;55.33
15604;BME280;7902;49.042;9.092;2023-05-11T14:00:07;98789.41;;;19.08;55.59